Time;durP1;ratioP1;P1;durP2;ratioP2;P2;SDS_P1;SDS_P2;PMS_P1;PMS_P2;Temp;Humidity;BMP_temperature;BMP_pressure;BME280_temperature;BME280_humidity;BME280_pressure;Samples;Min_cycle;Max_cycle;Signal;HPM_P1;HPM_P2
2022/01/11 00:00:11;;;;;;;58.83;28.40;;;-1.50;99.90;;;;;;5052158;28;20231;-72
2022/01/11 00:02:59;;;;;;;58.40;28.47;;;-1.50;99.90;;;;;;5046095;28;20767;-72
2022/01/11 00:05:54;;;;;;;58.47;29.67;;;-1.60;99.90;;;;;;5044869;28;20244;-71
2022/01/11 00:08:44;;;;;;;65.53;29.83;;;-1.60;99.90;;;;;;5047789;28;20227;-74
2022/01/11 00:11:33;;;;;;;59.33;27.83;;;-1.40;99.90;;;;;;5058116;28;20243;-71
2022/01/11 00:14:23;;;;;;;56.10;27.57;;;-1.60;99.90;;;;;;5045861;28;20231;-73
2022/01/11 00:17:11;;;;;;;57.13;27.97;;;-1.60;99.90;;;;;;5058639;28;20259;-72
2022/01/11 00:20:00;;;;;;;61.30;28.27;;;-1.60;99.90;;;;;;5054529;28;20224;-74
2022/01/11 00:25:56;;;;;;;58.63;28.67;;;-1.70;99.90;;;;;;5045886;28;20215;-73
2022/01/11 00:28:45;;;;;;;60.97;26.87;;;-1.70;99.90;;;;;;5057590;28;20232;-72
2022/01/11 00:31:44;;;;;;;55.13;27.80;;;-1.80;99.90;;;;;;5046451;28;20385;-73
2022/01/11 00:34:47;;;;;;;66.43;29.17;;;-1.80;99.90;;;;;;5045724;28;20243;-72
2022/01/11 00:37:36;;;;;;;58.83;27.10;;;-1.80;99.90;;;;;;5051155;28;20224;-73
2022/01/11 00:40:26;;;;;;;58.67;27.20;;;-1.80;99.90;;;;;;5042234;28;20692;-73
2022/01/11 00:43:16;;;;;;;61.37;28.47;;;-1.80;99.90;;;;;;5055906;28;20221;-74
2022/01/11 00:46:06;;;;;;;61.33;27.77;;;-1.90;99.90;;;;;;5054991;28;20213;-74
2022/01/11 00:48:58;;;;;;;57.53;29.40;;;-1.90;99.90;;;;;;5045365;28;20220;-74
2022/01/11 00:51:47;;;;;;;56.77;27.70;;;-1.90;99.90;;;;;;5038882;28;20217;-74
2022/01/11 00:54:35;;;;;;;59.27;28.13;;;-1.90;99.90;;;;;;5037166;28;20224;-74
2022/01/11 00:57:24;;;;;;;60.37;29.27;;;-1.90;99.90;;;;;;5053328;28;20238;-74
2022/01/11 01:00:14;;;;;;;65.97;29.87;;;-1.90;99.90;;;;;;5035023;28;20220;-74
2022/01/11 01:03:02;;;;;;;63.53;29.93;;;-1.80;99.90;;;;;;5038213;28;20221;-73
2022/01/11 01:05:54;;;;;;;56.13;26.93;;;-1.80;99.90;;;;;;5036704;28;20215;-72
2022/01/11 01:08:44;;;;;;;57.87;28.47;;;-1.80;99.90;;;;;;5036865;28;20259;-71
2022/01/11 01:11:33;;;;;;;60.57;29.93;;;-2.00;99.90;;;;;;5037748;28;20216;-72
2022/01/11 01:14:22;;;;;;;61.17;28.80;;;-1.90;99.90;;;;;;5050575;28;20236;-72
2022/01/11 01:17:12;;;;;;;64.50;28.30;;;-1.90;99.90;;;;;;5045592;28;20320;-71
2022/01/11 01:20:01;;;;;;;60.47;29.90;;;-2.00;99.90;;;;;;5051791;28;20294;-72
2022/01/11 01:22:51;;;;;;;66.40;29.43;;;-2.00;99.90;;;;;;5047805;28;20312;-71
2022/01/11 01:25:40;;;;;;;58.80;28.10;;;-2.00;99.90;;;;;;5050252;28;20211;-73
2022/01/11 01:28:29;;;;;;;62.17;29.13;;;-2.00;99.90;;;;;;5049855;28;20219;-73
2022/01/11 01:31:18;;;;;;;61.03;29.27;;;-1.90;99.90;;;;;;5039032;28;20228;-72
2022/01/11 01:34:13;;;;;;;57.10;29.03;;;-2.10;99.90;;;;;;5041105;28;21075;-72
2022/01/11 01:37:02;;;;;;;64.07;28.57;;;-2.10;99.90;;;;;;5053592;28;20247;-71
2022/01/11 01:39:52;;;;;;;64.27;28.63;;;-2.00;99.90;;;;;;5036783;28;20231;-72
2022/01/11 01:42:41;;;;;;;66.17;30.57;;;-2.00;99.90;;;;;;5041303;28;20223;-72
2022/01/11 01:45:30;;;;;;;66.30;29.60;;;-2.10;99.90;;;;;;5038386;28;20314;-72
2022/01/11 01:48:20;;;;;;;61.73;29.27;;;-2.20;99.90;;;;;;5042093;28;20223;-73
2022/01/11 01:51:10;;;;;;;67.83;30.43;;;-2.10;99.90;;;;;;5036330;28;20806;-73
2022/01/11 01:54:00;;;;;;;59.77;29.37;;;-2.10;99.90;;;;;;5032512;28;20208;-72
2022/01/11 01:56:50;;;;;;;64.67;30.80;;;-2.20;99.90;;;;;;5053020;28;20312;-73
2022/01/11 01:59:39;;;;;;;58.33;28.93;;;-2.10;99.90;;;;;;5061125;28;20226;-73
2022/01/11 02:02:27;;;;;;;67.30;31.13;;;-2.20;99.90;;;;;;5041190;28;20220;-73
2022/01/11 02:05:16;;;;;;;68.33;31.57;;;-2.10;99.90;;;;;;5049333;28;20248;-71
2022/01/11 02:08:07;;;;;;;56.47;27.03;;;-2.10;99.90;;;;;;5050067;28;20225;-74
2022/01/11 02:10:56;;;;;;;63.37;29.23;;;-2.20;99.90;;;;;;5038550;28;20219;-72
2022/01/11 02:13:47;;;;;;;64.13;28.53;;;-2.20;99.90;;;;;;5031126;28;20235;-72
2022/01/11 02:16:38;;;;;;;62.13;27.53;;;-2.20;99.90;;;;;;5033647;28;20232;-72
2022/01/11 02:19:27;;;;;;;64.90;29.93;;;-2.20;99.90;;;;;;5052972;28;20223;-73
2022/01/11 02:22:17;;;;;;;61.40;28.10;;;-2.20;99.90;;;;;;5037325;28;20707;-72
2022/01/11 02:25:08;;;;;;;64.23;28.37;;;-2.30;99.90;;;;;;5038666;28;20220;-73
2022/01/11 02:27:57;;;;;;;65.10;30.67;;;-2.20;99.90;;;;;;5039509;28;20227;-72
2022/01/11 02:30:46;;;;;;;63.20;30.93;;;-2.20;99.90;;;;;;5056199;28;20345;-73
2022/01/11 02:33:37;;;;;;;63.47;27.73;;;-2.30;99.90;;;;;;5051763;28;20220;-72
2022/01/11 02:36:43;;;;;;;61.60;30.13;;;-2.20;99.90;;;;;;5053980;28;20232;-72
2022/01/11 02:39:49;;;;;;;67.27;31.07;;;-2.30;99.90;;;;;;5040773;28;20293;-72
2022/01/11 02:42:52;;;;;;;67.80;30.20;;;-2.30;99.90;;;;;;5036243;28;20270;-74
2022/01/11 02:45:42;;;;;;;58.67;29.30;;;-2.40;99.90;;;;;;5050613;28;20250;-73
2022/01/11 02:48:31;;;;;;;67.37;31.43;;;-2.30;99.90;;;;;;5037027;28;20253;-73
2022/01/11 02:51:20;;;;;;;64.77;29.63;;;-2.40;99.90;;;;;;5057786;28;20313;-74
2022/01/11 02:54:11;;;;;;;65.07;28.23;;;-2.30;99.90;;;;;;5050553;28;20728;-74
2022/01/11 02:57:03;;;;;;;64.80;29.37;;;-2.40;99.90;;;;;;5042844;28;21051;-74
2022/01/11 02:59:52;;;;;;;59.10;26.70;;;-2.40;99.90;;;;;;5045973;28;20238;-71
2022/01/11 03:02:42;;;;;;;64.63;30.53;;;-2.50;99.90;;;;;;5044837;28;20222;-74
2022/01/11 03:05:31;;;;;;;69.37;31.00;;;-2.50;99.90;;;;;;5040710;28;20543;-74
2022/01/11 03:08:24;;;;;;;66.40;30.60;;;-2.50;99.90;;;;;;5052243;28;20590;-72
2022/01/11 03:11:14;;;;;;;68.50;31.07;;;-2.50;99.90;;;;;;5055772;28;20226;-73
2022/01/11 03:14:07;;;;;;;57.57;25.93;;;-2.50;99.90;;;;;;5043188;28;20640;-74
2022/01/11 03:16:56;;;;;;;52.70;24.37;;;-2.60;99.90;;;;;;5044269;28;20231;-72
2022/01/11 03:19:47;;;;;;;68.17;32.17;;;-2.60;99.90;;;;;;5039251;28;20227;-73
2022/01/11 03:22:35;;;;;;;67.73;31.83;;;-2.60;99.90;;;;;;5043016;28;20303;-73
2022/01/11 03:25:26;;;;;;;68.80;29.67;;;-2.50;99.90;;;;;;5036624;28;20275;-73
2022/01/11 03:28:16;;;;;;;65.47;29.50;;;-2.50;99.90;;;;;;5038464;28;20243;-75
2022/01/11 03:31:06;;;;;;;67.37;31.30;;;-2.70;99.90;;;;;;5039411;28;20220;-75
2022/01/11 03:34:09;;;;;;;66.20;28.53;;;-2.60;99.90;;;;;;5042242;28;20774;-74
2022/01/11 03:36:58;;;;;;;66.77;29.00;;;-2.60;99.90;;;;;;5036630;28;20220;-74
2022/01/11 03:39:47;;;;;;;67.90;31.97;;;-2.50;99.90;;;;;;5051938;28;20827;-72
2022/01/11 03:42:36;;;;;;;67.17;32.03;;;-2.60;99.90;;;;;;5040813;28;20348;-73
2022/01/11 03:45:28;;;;;;;64.77;30.17;;;-2.50;99.90;;;;;;5040130;28;20222;-75
2022/01/11 03:48:24;;;;;;;69.07;30.97;;;-2.50;99.90;;;;;;5053463;28;20234;-74
2022/01/11 03:51:13;;;;;;;66.73;30.50;;;-2.50;99.90;;;;;;5051679;28;20988;-75
2022/01/11 03:54:13;;;;;;;69.13;30.80;;;-2.50;99.90;;;;;;5035143;28;20319;-73
2022/01/11 03:57:25;;;;;;;67.27;31.17;;;-2.60;99.90;;;;;;5041077;28;20235;-70
2022/01/11 04:00:18;;;;;;;68.07;29.00;;;-2.50;99.90;;;;;;5042853;28;20273;-73
2022/01/11 04:03:10;;;;;;;64.20;30.67;;;-2.60;99.90;;;;;;5039956;28;20212;-73
2022/01/11 04:06:00;;;;;;;63.50;30.90;;;-2.60;99.90;;;;;;5042545;28;20220;-73
2022/01/11 04:08:49;;;;;;;59.93;29.83;;;-2.50;99.90;;;;;;5042070;28;20890;-73
2022/01/11 04:11:39;;;;;;;68.43;32.00;;;-2.60;99.90;;;;;;5041080;28;20234;-73
2022/01/11 04:14:27;;;;;;;72.90;32.47;;;-2.60;99.90;;;;;;5051664;28;20243;-73
2022/01/11 04:17:16;;;;;;;71.67;31.63;;;-2.60;99.90;;;;;;5039982;28;20227;-70
2022/01/11 04:20:06;;;;;;;62.90;27.70;;;-2.70;99.90;;;;;;5044501;28;20227;-73
2022/01/11 04:22:56;;;;;;;62.50;30.10;;;-2.70;99.90;;;;;;5051958;28;20223;-72
2022/01/11 04:25:46;;;;;;;61.17;27.07;;;-2.70;99.90;;;;;;5040752;28;20243;-72
2022/01/11 04:28:35;;;;;;;67.97;31.47;;;-2.70;99.90;;;;;;5049648;28;20220;-72
2022/01/11 04:31:26;;;;;;;69.43;32.27;;;-2.80;99.90;;;;;;5037875;28;20726;-72
2022/01/11 04:34:15;;;;;;;58.57;26.23;;;-2.80;99.90;;;;;;5053267;28;20697;-73
2022/01/11 04:37:04;;;;;;;71.60;30.30;;;-2.90;99.90;;;;;;5045007;28;20253;-73
2022/01/11 04:39:56;;;;;;;51.87;23.20;;;-2.90;99.90;;;;;;5030104;28;20221;-74
2022/01/11 04:42:45;;;;;;;68.60;30.50;;;-3.00;99.90;;;;;;5044292;28;20233;-70
2022/01/11 04:45:34;;;;;;;67.53;29.60;;;-3.10;99.90;;;;;;5041700;28;20266;-72
2022/01/11 04:48:23;;;;;;;72.17;30.27;;;-3.10;99.90;;;;;;5025501;28;20514;-72
2022/01/11 04:51:12;;;;;;;65.73;28.40;;;-3.10;99.90;;;;;;5049683;28;20418;-75
2022/01/11 04:54:01;;;;;;;67.97;31.00;;;-3.10;99.90;;;;;;5046260;28;20360;-71
2022/01/11 04:56:52;;;;;;;73.43;30.23;;;-3.00;99.90;;;;;;5045916;28;20366;-76
2022/01/11 04:59:40;;;;;;;67.07;31.07;;;-3.00;99.90;;;;;;5052528;28;20309;-75
2022/01/11 05:02:30;;;;;;;66.10;31.07;;;-3.10;99.90;;;;;;5038860;28;20551;-73
2022/01/11 05:05:20;;;;;;;72.60;31.57;;;-3.10;99.90;;;;;;5041864;28;20300;-76
2022/01/11 05:08:08;;;;;;;67.23;30.90;;;-3.10;99.90;;;;;;5053112;28;20223;-73
2022/01/11 05:10:57;;;;;;;65.73;29.83;;;-3.00;99.90;;;;;;5041943;28;20797;-73
2022/01/11 05:13:47;;;;;;;71.60;31.80;;;-3.00;99.90;;;;;;5053816;28;20771;-75
2022/01/11 05:16:54;;;;;;;70.40;32.00;;;-3.00;99.90;;;;;;5038078;28;20233;-75
2022/01/11 05:19:44;;;;;;;52.93;20.27;;;-3.00;99.90;;;;;;5040480;28;20223;-74
2022/01/11 05:22:33;;;;;;;71.07;32.30;;;-3.00;99.90;;;;;;5033416;28;20238;-75
2022/01/11 05:25:22;;;;;;;73.63;33.53;;;-3.00;99.90;;;;;;5052060;28;20223;-75
2022/01/11 05:28:11;;;;;;;73.57;34.17;;;-2.80;99.90;;;;;;5050211;28;20256;-74
2022/01/11 05:31:03;;;;;;;66.80;31.10;;;-2.70;99.90;;;;;;5051305;28;20229;-75
2022/01/11 05:33:52;;;;;;;75.97;32.10;;;-2.70;99.90;;;;;;5040447;28;20221;-74
2022/01/11 05:36:41;;;;;;;73.57;32.67;;;-2.80;99.90;;;;;;5041444;28;20220;-71
2022/01/11 05:39:29;;;;;;;72.90;32.93;;;-2.70;99.90;;;;;;5044279;28;20222;-68
2022/01/11 05:42:18;;;;;;;74.83;32.70;;;-2.70;99.90;;;;;;5052356;28;20953;-73
2022/01/11 05:45:09;;;;;;;74.60;33.23;;;-2.70;99.90;;;;;;5047973;28;20598;-74
2022/01/11 05:48:02;;;;;;;75.97;30.30;;;-2.60;99.90;;;;;;5052669;28;20692;-73
2022/01/11 05:50:52;;;;;;;74.80;29.83;;;-2.70;99.90;;;;;;5038442;28;20239;-73
2022/01/11 05:53:43;;;;;;;76.03;32.53;;;-2.80;99.90;;;;;;5021862;28;20238;-72
2022/01/11 05:56:32;;;;;;;75.93;31.63;;;-2.90;99.90;;;;;;5038634;28;20229;-73
2022/01/11 05:59:22;;;;;;;78.20;34.70;;;-2.90;99.90;;;;;;5040126;28;20237;-72
2022/01/11 06:02:11;;;;;;;89.30;35.90;;;-3.10;99.90;;;;;;5029082;28;20320;-71
2022/01/11 06:05:01;;;;;;;76.70;34.37;;;-3.20;99.90;;;;;;5050245;28;20238;-75
2022/01/11 06:07:50;;;;;;;78.27;34.87;;;-3.10;99.90;;;;;;5038277;28;20246;-74
2022/01/11 06:10:40;;;;;;;80.23;32.30;;;-3.00;99.90;;;;;;5034311;28;20217;-74
2022/01/11 06:13:29;;;;;;;73.57;31.90;;;-3.00;99.90;;;;;;5036285;28;20230;-73
2022/01/11 06:16:17;;;;;;;84.93;35.20;;;-3.00;99.90;;;;;;5035578;28;20619;-75
2022/01/11 06:19:06;;;;;;;87.37;32.67;;;-3.20;99.90;;;;;;5039324;28;20245;-77
2022/01/11 06:22:28;;;;;;;75.63;32.03;;;-3.20;99.90;;;;;;5056322;28;20222;-74
2022/01/11 06:25:24;;;;;;;82.23;27.83;;;-3.30;99.90;;;;;;5040529;28;20327;-75
2022/01/11 06:28:14;;;;;;;80.83;33.63;;;-3.30;99.90;;;;;;5043431;28;20220;-75
2022/01/11 06:31:02;;;;;;;96.13;37.00;;;-3.30;99.90;;;;;;5053058;28;20235;-75
2022/01/11 06:33:51;;;;;;;87.20;36.93;;;-3.30;99.90;;;;;;5041802;28;20299;-75
2022/01/11 06:36:41;;;;;;;89.70;36.17;;;-3.30;99.90;;;;;;5039071;28;20491;-76
2022/01/11 06:39:36;;;;;;;85.13;34.27;;;-3.20;99.90;;;;;;5034943;28;20316;-74
2022/01/11 06:42:25;;;;;;;95.50;36.73;;;-3.10;99.90;;;;;;5045461;28;20350;-74
2022/01/11 06:45:15;;;;;;;90.73;32.27;;;-3.20;99.90;;;;;;5038537;28;20555;-72
2022/01/11 06:48:04;;;;;;;94.33;38.57;;;-3.40;99.90;;;;;;5044521;28;20326;-74
2022/01/11 06:50:53;;;;;;;89.73;30.33;;;-3.50;99.90;;;;;;5039029;28;20218;-74
2022/01/11 06:53:45;;;;;;;83.80;31.33;;;-3.80;99.90;;;;;;5032423;28;20229;-76
2022/01/11 06:56:35;;;;;;;89.30;34.30;;;-4.00;99.90;;;;;;5034903;28;20335;-73
2022/01/11 06:59:28;;;;;;;74.27;25.27;;;-4.20;99.90;;;;;;5051331;28;20621;-74
2022/01/11 07:02:22;;;;;;;61.87;21.67;;;-4.10;99.90;;;;;;5041765;28;20720;-74
2022/01/11 07:05:38;;;;;;;83.17;27.90;;;-4.20;99.90;;;;;;5052330;28;20224;-73
2022/01/11 07:08:27;;;;;;;76.03;27.67;;;-4.20;99.90;;;;;;5052514;28;20299;-74
2022/01/11 07:11:16;;;;;;;107.17;36.50;;;-4.20;99.90;;;;;;5052622;28;20326;-75
2022/01/11 07:14:06;;;;;;;107.40;37.13;;;-4.40;99.90;;;;;;5038754;28;20300;-75
2022/01/11 07:16:55;;;;;;;100.07;36.97;;;-4.30;99.90;;;;;;5039619;28;20243;-74
2022/01/11 07:19:44;;;;;;;90.70;31.87;;;-4.20;99.90;;;;;;5040217;28;20598;-74
2022/01/11 07:22:37;;;;;;;89.13;33.53;;;-4.30;99.90;;;;;;5044108;28;20224;-74
2022/01/11 07:25:30;;;;;;;83.03;31.80;;;-4.20;99.90;;;;;;5039510;28;20307;-74
2022/01/11 07:28:20;;;;;;;69.17;28.13;;;-4.00;99.90;;;;;;5051469;28;20218;-73
2022/01/11 07:31:11;;;;;;;77.73;30.10;;;-4.00;99.90;;;;;;5039689;28;20594;-74
2022/01/11 07:34:08;;;;;;;67.67;27.90;;;-4.10;99.90;;;;;;5053462;28;20213;-74
2022/01/11 07:36:57;;;;;;;72.23;28.23;;;-4.10;99.90;;;;;;5043019;28;20217;-73
2022/01/11 07:39:46;;;;;;;67.37;25.70;;;-3.90;99.90;;;;;;5054214;28;20274;-75
2022/01/11 07:42:35;;;;;;;71.53;26.37;;;-3.80;99.90;;;;;;5044005;28;20730;-72
2022/01/11 07:45:53;;;;;;;66.33;23.67;;;-3.60;99.90;;;;;;5052863;28;20600;-72
2022/01/11 07:48:47;;;;;;;72.10;24.97;;;-3.60;99.90;;;;;;5036876;28;20603;-72
2022/01/11 07:51:36;;;;;;;49.43;16.63;;;-3.60;99.90;;;;;;5041097;28;20270;-72
2022/01/11 07:54:32;;;;;;;74.27;17.70;;;-3.60;99.90;;;;;;5044801;28;20232;-72
2022/01/11 07:57:23;;;;;;;58.07;21.67;;;-3.80;99.90;;;;;;5042226;28;20223;-73
2022/01/11 08:00:14;;;;;;;49.50;16.63;;;-3.60;99.90;;;;;;5041258;28;20217;-72
2022/01/11 08:03:02;;;;;;;59.37;22.30;;;-3.50;99.90;;;;;;5055044;28;20734;-72
2022/01/11 08:06:06;;;;;;;59.83;21.60;;;-3.30;99.90;;;;;;5040804;28;20236;-71
2022/01/11 08:08:56;;;;;;;73.70;24.13;;;-3.30;99.90;;;;;;5035000;28;20222;-73
2022/01/11 08:11:45;;;;;;;67.07;23.87;;;-3.30;99.90;;;;;;5041474;28;20566;-72
2022/01/11 08:14:34;;;;;;;69.10;22.43;;;-3.20;99.90;;;;;;5052238;28;20365;-70
2022/01/11 08:17:23;;;;;;;68.23;24.63;;;-3.20;99.90;;;;;;5032367;28;20777;-74
2022/01/11 08:20:12;;;;;;;70.57;26.73;;;-3.10;99.90;;;;;;5038177;28;20228;-72
2022/01/11 08:23:05;;;;;;;74.47;25.97;;;-2.90;99.90;;;;;;5038672;28;20218;-72
2022/01/11 08:25:56;;;;;;;72.57;25.50;;;-2.80;99.90;;;;;;5036957;28;20264;-73
2022/01/11 08:28:45;;;;;;;79.60;25.80;;;-2.70;99.90;;;;;;5036588;28;20657;-71
2022/01/11 08:31:34;;;;;;;73.97;26.57;;;-2.70;99.90;;;;;;5050562;28;20344;-73
2022/01/11 08:34:24;;;;;;;79.00;28.67;;;-2.60;99.90;;;;;;5042394;28;20736;-73
2022/01/11 08:37:14;;;;;;;75.40;25.80;;;-2.80;99.90;;;;;;5037877;28;20230;-74
2022/01/11 08:40:06;;;;;;;68.77;27.27;;;-2.70;99.90;;;;;;5038036;28;20259;-76
2022/01/11 08:42:55;;;;;;;73.80;27.97;;;-2.60;99.90;;;;;;5036053;28;20313;-74
2022/01/11 08:45:44;;;;;;;61.07;23.83;;;-2.40;99.90;;;;;;5037814;28;20707;-71
2022/01/11 08:48:37;;;;;;;64.83;26.43;;;-2.30;99.90;;;;;;5036146;28;20712;-65
2022/01/11 08:51:30;;;;;;;72.50;28.60;;;-2.30;99.90;;;;;;5039629;28;20220;-69
2022/01/11 08:54:24;;;;;;;71.53;27.33;;;-2.20;99.90;;;;;;5040645;28;20712;-73
2022/01/11 08:57:19;;;;;;;68.87;26.57;;;-2.20;99.90;;;;;;5037046;28;20224;-65
2022/01/11 09:00:16;;;;;;;71.03;28.60;;;-2.10;99.90;;;;;;5035499;28;20252;-71
2022/01/11 09:03:07;;;;;;;67.37;28.17;;;-1.90;99.90;;;;;;5046105;28;20296;-67
2022/01/11 09:06:04;;;;;;;68.87;29.03;;;-1.90;99.90;;;;;;5047593;28;20219;-70
2022/01/11 09:08:53;;;;;;;62.07;25.57;;;-1.80;99.90;;;;;;5052816;28;20221;-70
2022/01/11 09:11:42;;;;;;;70.50;27.67;;;-1.60;99.90;;;;;;5038633;28;20219;-71
2022/01/11 09:14:36;;;;;;;67.90;27.93;;;-1.90;99.90;;;;;;5037852;28;20719;-70
2022/01/11 09:17:25;;;;;;;69.07;26.97;;;-1.70;99.90;;;;;;5040525;28;20212;-71
2022/01/11 09:20:16;;;;;;;65.47;27.70;;;-1.60;99.90;;;;;;5039112;28;20224;-71
2022/01/11 09:23:07;;;;;;;61.37;25.20;;;-1.70;99.90;;;;;;5041708;28;20315;-72
2022/01/11 09:25:59;;;;;;;66.70;28.57;;;-1.90;99.90;;;;;;5053278;28;20769;-72
2022/01/11 09:28:48;;;;;;;65.10;27.37;;;-1.90;99.90;;;;;;5034741;28;20232;-72
2022/01/11 09:31:38;;;;;;;68.13;28.23;;;-1.80;99.90;;;;;;5050715;28;20228;-71
2022/01/11 09:34:27;;;;;;;64.80;28.37;;;-1.80;99.90;;;;;;5041868;28;20223;-69
2022/01/11 09:37:17;;;;;;;61.13;27.47;;;-1.60;99.90;;;;;;5040428;28;20735;-71
2022/01/11 09:40:09;;;;;;;66.17;27.93;;;-1.50;99.90;;;;;;5040859;28;20236;-71
2022/01/11 09:42:58;;;;;;;60.00;25.77;;;-1.50;99.90;;;;;;5037575;28;20221;-71
2022/01/11 09:45:48;;;;;;;64.70;28.23;;;-1.30;99.90;;;;;;5040010;28;20239;-70
2022/01/11 09:48:39;;;;;;;61.10;29.23;;;-1.40;99.90;;;;;;5054870;28;20231;-70
2022/01/11 09:51:31;;;;;;;64.23;27.30;;;-1.40;99.90;;;;;;5051060;28;20220;-71
2022/01/11 09:54:21;;;;;;;62.10;27.97;;;-1.20;99.90;;;;;;5046284;28;20309;-71
2022/01/11 09:57:11;;;;;;;62.00;27.10;;;-1.10;99.90;;;;;;5048208;28;20222;-71
2022/01/11 10:00:00;;;;;;;61.67;27.70;;;-1.10;99.90;;;;;;5042574;28;20410;-73
2022/01/11 10:03:13;;;;;;;67.07;28.77;;;-1.10;99.90;;;;;;5019470;28;20226;-72
2022/01/11 10:06:17;;;;;;;55.57;27.37;;;-1.00;99.90;;;;;;5042164;28;20707;-73
2022/01/11 10:09:11;;;;;;;63.50;29.50;;;-1.00;99.90;;;;;;5054354;28;20291;-70
2022/01/11 10:12:02;;;;;;;62.57;28.80;;;-0.90;99.90;;;;;;5060086;28;20219;-71
2022/01/11 10:14:53;;;;;;;64.77;29.50;;;-0.70;99.90;;;;;;5045567;28;20300;-71
2022/01/11 10:17:46;;;;;;;64.43;28.10;;;-0.60;99.90;;;;;;5041049;28;20390;-74
2022/01/11 10:20:38;;;;;;;59.80;27.77;;;-0.70;99.90;;;;;;5046324;28;20215;-74
2022/01/11 10:23:37;;;;;;;55.27;26.97;;;-0.80;99.90;;;;;;5054634;28;20236;-71
2022/01/11 10:26:41;;;;;;;58.27;27.13;;;-0.80;99.90;;;;;;5048745;28;20371;-72
2022/01/11 10:29:37;;;;;;;62.40;28.33;;;-0.80;99.90;;;;;;5056212;28;20825;-70
2022/01/11 10:32:32;;;;;;;59.37;27.33;;;-0.70;99.90;;;;;;5047723;28;20233;-70
2022/01/11 10:35:31;;;;;;;60.17;27.17;;;-0.60;99.90;;;;;;5042543;28;20216;-69
2022/01/11 10:38:47;;;;;;;60.33;27.67;;;-0.60;99.90;;;;;;5047820;28;20765;-73
2022/01/11 10:41:46;;;;;;;66.93;29.17;;;-0.60;99.90;;;;;;5042809;28;20227;-72
2022/01/11 10:44:51;;;;;;;54.63;24.80;;;-0.50;99.90;;;;;;5042530;28;20230;-72
2022/01/11 10:47:46;;;;;;;55.67;24.23;;;-0.50;99.90;;;;;;5044653;28;20223;-72
2022/01/11 10:50:38;;;;;;;56.33;26.03;;;-0.60;99.90;;;;;;5040390;28;20251;-71
2022/01/11 10:53:32;;;;;;;54.03;24.97;;;-0.50;99.90;;;;;;5044330;28;20236;-71
2022/01/11 10:56:41;;;;;;;57.57;28.37;;;-0.40;99.90;;;;;;5042833;28;20234;-72
2022/01/11 10:59:30;;;;;;;53.90;25.23;;;-0.40;99.90;;;;;;5041102;28;20762;-70
2022/01/11 11:02:26;;;;;;;57.13;26.97;;;-0.30;99.90;;;;;;5042923;28;20724;-71
2022/01/11 11:05:24;;;;;;;57.77;26.83;;;-0.30;99.90;;;;;;5040346;28;20234;-71
2022/01/11 11:08:20;;;;;;;52.97;25.17;;;-0.30;99.90;;;;;;5042721;28;20242;-72
2022/01/11 11:11:30;;;;;;;54.37;25.20;;;-0.20;99.90;;;;;;5051269;28;20227;-71
2022/01/11 11:14:51;;;;;;;62.77;27.47;;;-0.30;99.90;;;;;;5059543;28;20739;-73
2022/01/11 11:17:40;;;;;;;61.80;27.20;;;-0.20;99.90;;;;;;5044775;28;20224;-70
2022/01/11 11:20:46;;;;;;;56.90;27.00;;;-0.10;99.90;;;;;;5039842;28;20309;-71
2022/01/11 11:23:35;;;;;;;61.43;28.23;;;-0.10;99.90;;;;;;5045576;28;20557;-72
2022/01/11 11:26:30;;;;;;;57.27;27.97;;;-0.10;99.90;;;;;;5044528;28;20232;-70
2022/01/11 11:29:22;;;;;;;62.50;25.10;;;0.00;99.90;;;;;;5056672;28;20238;-71
2022/01/11 11:32:32;;;;;;;49.00;24.73;;;0.00;99.90;;;;;;5057268;28;20679;-70
2022/01/11 11:35:22;;;;;;;47.13;23.33;;;0.10;99.90;;;;;;5039137;28;20235;-72
2022/01/11 11:38:12;;;;;;;43.93;20.97;;;0.10;99.90;;;;;;5043346;28;20830;-72
2022/01/11 11:41:01;;;;;;;37.70;20.00;;;-0.10;99.90;;;;;;5042116;28;20243;-72
2022/01/11 11:44:06;;;;;;;40.43;19.87;;;0.00;99.90;;;;;;5055560;28;20334;-72
2022/01/11 11:46:59;;;;;;;45.27;20.27;;;0.00;99.90;;;;;;5057485;28;20216;-72
2022/01/11 11:49:50;;;;;;;45.87;21.00;;;0.00;99.90;;;;;;5043430;28;20682;-71
2022/01/11 11:52:42;;;;;;;42.60;19.00;;;0.20;99.90;;;;;;5058533;28;20240;-71
2022/01/11 11:55:33;;;;;;;37.67;19.23;;;0.10;99.90;;;;;;5047943;28;20219;-72
2022/01/11 11:58:23;;;;;;;47.87;21.63;;;0.10;99.90;;;;;;5041123;28;20225;-72
2022/01/11 12:01:42;;;;;;;44.60;21.77;;;0.20;99.90;;;;;;5057713;28;20305;-70
2022/01/11 12:04:55;;;;;;;45.37;21.67;;;0.20;99.90;;;;;;5054551;28;20323;-71
2022/01/11 12:07:46;;;;;;;43.30;21.63;;;0.20;99.90;;;;;;5042924;28;20243;-71
2022/01/11 12:10:52;;;;;;;49.43;23.17;;;0.10;99.90;;;;;;5031376;28;20213;-71
2022/01/11 12:13:44;;;;;;;46.53;22.30;;;0.20;99.90;;;;;;5051723;28;20847;-70
2022/01/11 12:16:43;;;;;;;46.57;22.17;;;0.20;99.90;;;;;;5049759;28;20229;-68
2022/01/11 12:19:44;;;;;;;48.90;23.50;;;0.10;99.90;;;;;;5050157;28;20781;-70
2022/01/11 12:22:52;;;;;;;51.00;24.57;;;0.10;99.90;;;;;;5043253;28;20229;-70
2022/01/11 12:25:43;;;;;;;48.47;24.00;;;0.20;99.90;;;;;;5041209;28;20231;-71
2022/01/11 12:28:31;;;;;;;54.27;23.67;;;0.20;99.90;;;;;;5054337;28;20223;-71
2022/01/11 12:31:25;;;;;;;57.80;26.77;;;0.20;99.90;;;;;;5056348;28;20224;-71
2022/01/11 12:34:14;;;;;;;55.53;26.27;;;0.20;99.90;;;;;;5052980;28;20230;-71
2022/01/11 12:37:04;;;;;;;52.40;26.27;;;0.10;99.90;;;;;;5054777;28;20227;-71
2022/01/11 12:40:14;;;;;;;45.20;21.50;;;0.20;99.90;;;;;;5043532;28;20227;-72
2022/01/11 12:43:06;;;;;;;52.77;23.03;;;0.00;99.90;;;;;;5051813;28;20219;-73
2022/01/11 12:46:02;;;;;;;50.47;23.33;;;-0.20;99.90;;;;;;5042338;28;20443;-73
2022/01/11 12:48:53;;;;;;;52.27;23.90;;;-0.20;99.90;;;;;;5054552;28;20235;-71
2022/01/11 12:52:09;;;;;;;57.50;25.77;;;-0.30;99.90;;;;;;5050749;28;20214;-72
2022/01/11 12:54:59;;;;;;;59.03;26.20;;;-0.30;99.90;;;;;;5058058;28;20240;-72
2022/01/11 12:57:49;;;;;;;61.77;27.90;;;-0.30;99.90;;;;;;5040418;28;20633;-72
2022/01/11 13:00:38;;;;;;;60.07;27.77;;;-0.40;99.90;;;;;;5060550;28;20214;-72
2022/01/11 13:03:27;;;;;;;63.23;26.20;;;-0.30;99.90;;;;;;5046507;28;20226;-72
2022/01/11 13:06:18;;;;;;;60.53;28.90;;;-0.40;99.90;;;;;;5054479;28;20216;-70
2022/01/11 13:09:09;;;;;;;63.63;28.80;;;-0.30;99.90;;;;;;5063522;28;20225;-73
2022/01/11 13:11:58;;;;;;;66.00;32.07;;;-0.20;99.90;;;;;;5058830;28;20213;-74
2022/01/11 13:14:59;;;;;;;61.30;25.53;;;-0.10;99.90;;;;;;5046449;28;20736;-71
2022/01/11 13:17:50;;;;;;;66.80;30.33;;;-0.30;99.90;;;;;;5044312;28;20303;-72
2022/01/11 13:21:00;;;;;;;60.77;27.67;;;-0.40;99.90;;;;;;5055138;28;20720;-71
2022/01/11 13:23:59;;;;;;;53.73;23.90;;;-0.30;99.90;;;;;;5044081;28;20283;-72
2022/01/11 13:26:48;;;;;;;63.37;27.70;;;-0.40;99.90;;;;;;5052790;28;20243;-74
2022/01/11 13:29:37;;;;;;;61.27;27.60;;;-0.40;99.90;;;;;;5057998;28;20226;-72
2022/01/11 13:32:27;;;;;;;60.07;26.67;;;-0.30;99.90;;;;;;5043148;28;20245;-72
2022/01/11 13:35:17;;;;;;;47.87;22.07;;;-0.20;99.90;;;;;;5054511;28;20237;-72
2022/01/11 13:38:13;;;;;;;38.87;18.73;;;-0.20;99.90;;;;;;5045177;28;20234;-72
2022/01/11 13:41:04;;;;;;;43.23;19.43;;;-0.30;99.90;;;;;;5054523;28;20454;-71
2022/01/11 13:44:04;;;;;;;44.73;20.87;;;-0.30;99.90;;;;;;5039042;28;20370;-73
2022/01/11 13:46:56;;;;;;;39.23;19.00;;;-0.20;99.90;;;;;;5036913;28;20229;-72
2022/01/11 13:49:52;;;;;;;32.50;16.20;;;-0.20;99.90;;;;;;5039939;28;21035;-73
2022/01/11 13:52:42;;;;;;;39.63;17.23;;;-0.20;99.90;;;;;;5044856;28;20897;-71
2022/01/11 13:55:31;;;;;;;32.33;15.60;;;-0.30;99.90;;;;;;5043550;28;20232;-73
2022/01/11 13:58:20;;;;;;;39.50;18.37;;;-0.30;99.90;;;;;;5053349;28;20230;-72
2022/01/11 14:01:17;;;;;;;38.07;18.33;;;-0.30;99.90;;;;;;5054522;28;20385;-73
2022/01/11 14:04:08;;;;;;;40.97;19.03;;;-0.30;99.90;;;;;;5051172;28;20236;-73
2022/01/11 14:07:00;;;;;;;37.37;17.47;;;-0.30;99.90;;;;;;5052857;28;20222;-73
2022/01/11 14:09:55;;;;;;;37.93;17.90;;;-0.30;99.90;;;;;;5042080;28;20234;-71
2022/01/11 14:12:45;;;;;;;35.83;17.33;;;-0.20;99.90;;;;;;5053096;28;20225;-73
2022/01/11 14:15:44;;;;;;;38.17;17.53;;;-0.30;99.90;;;;;;5042630;28;20282;-74
2022/01/11 14:18:32;;;;;;;36.97;15.03;;;-0.30;99.90;;;;;;5054685;28;20308;-72
2022/01/11 14:21:21;;;;;;;31.53;15.63;;;-0.20;99.90;;;;;;5051405;28;20306;-71
2022/01/11 14:24:11;;;;;;;26.37;12.80;;;-0.30;99.90;;;;;;5053249;28;20245;-73
2022/01/11 14:26:59;;;;;;;29.23;15.07;;;-0.30;99.90;;;;;;5046121;28;20222;-74
2022/01/11 14:29:57;;;;;;;34.27;16.60;;;-0.30;99.90;;;;;;5044903;28;20235;-71
2022/01/11 14:32:48;;;;;;;31.40;15.20;;;-0.30;99.90;;;;;;5058492;28;20636;-72
2022/01/11 14:35:37;;;;;;;37.80;17.13;;;-0.30;99.90;;;;;;5051889;28;20218;-72
2022/01/11 14:38:37;;;;;;;35.27;16.23;;;-0.30;99.90;;;;;;5057555;28;20734;-73